createdAt,value
2017-03-25T00:00:11.552Z,7.47
2017-03-25T00:01:20.751Z,7.52
2017-03-25T00:02:29.954Z,7.51
2017-03-25T00:03:38.518Z,7.49
2017-03-25T00:04:48.043Z,7.54
2017-03-25T00:05:56.924Z,7.45
2017-03-25T00:07:06.444Z,7.44
2017-03-25T00:08:15.649Z,7.39
2017-03-25T00:09:24.532Z,7.37
2017-03-25T00:10:33.732Z,7.41
2017-03-25T00:11:43.251Z,7.4
2017-03-25T00:12:52.452Z,7.37
2017-03-25T00:14:01.966Z,7.37
2017-03-25T00:15:10.531Z,7.47
2017-03-25T00:16:19.102Z,7.39
2017-03-25T00:17:28.304Z,7.31
2017-03-25T00:18:36.870Z,7.36
2017-03-25T00:19:45.753Z,7.29
2017-03-25T00:20:54.639Z,7.27
2017-03-25T00:22:03.838Z,7.33
2017-03-25T00:23:12.411Z,7.27
2017-03-25T00:24:21.617Z,7.19
2017-03-25T00:25:30.818Z,7.16
2017-03-25T00:26:39.702Z,7.21
2017-03-25T00:27:48.905Z,7.15
2017-03-25T00:28:57.792Z,7.16
2017-03-25T00:30:06.359Z,7.13
2017-03-25T00:31:14.926Z,7.13
2017-03-25T00:32:23.493Z,6.98
2017-03-25T00:33:32.691Z,7.13
2017-03-25T00:34:41.572Z,7.08
2017-03-25T00:35:50.453Z,7.03
2017-03-25T00:36:59.660Z,6.98
2017-03-25T00:38:08.858Z,7.08
2017-03-25T00:39:17.425Z,7.15
2017-03-25T00:40:26.621Z,7.05
2017-03-25T00:41:35.512Z,7.04
2017-03-25T00:42:45.029Z,7.13
2017-03-25T00:43:53.592Z,7.12
2017-03-25T00:45:02.475Z,7.13
2017-03-25T00:46:11.364Z,7.04
2017-03-25T00:47:20.900Z,7.03
2017-03-25T00:48:29.779Z,6.98
2017-03-25T00:49:38.663Z,6.97
2017-03-25T00:50:47.231Z,7.03
2017-03-25T00:51:55.799Z,7.03
2017-03-25T00:53:04.725Z,7.01
2017-03-25T00:54:13.923Z,6.98
2017-03-25T00:55:22.497Z,6.95
2017-03-25T00:56:31.070Z,6.94
2017-03-25T00:57:40.265Z,6.82
2017-03-25T00:58:49.783Z,6.86
2017-03-25T00:59:58.663Z,6.88
2017-03-25T01:01:07.234Z,6.88
2017-03-25T01:02:15.802Z,6.85
2017-03-25T01:03:25.002Z,6.88
2017-03-25T01:04:33.882Z,6.86
2017-03-25T01:05:42.763Z,6.85
2017-03-25T01:06:51.327Z,6.85
2017-03-25T01:07:59.893Z,6.86
2017-03-25T01:09:09.099Z,6.79
2017-03-25T01:10:17.980Z,6.83
2017-03-25T01:11:26.864Z,6.85
2017-03-25T01:12:35.745Z,6.88
2017-03-25T01:13:44.317Z,6.83
2017-03-25T01:14:53.514Z,6.78
2017-03-25T01:16:02.403Z,6.78
2017-03-25T01:17:11.292Z,6.73
2017-03-25T01:18:19.864Z,6.78
2017-03-25T01:19:28.751Z,6.78
2017-03-25T01:20:37.634Z,6.72
2017-03-25T01:21:47.466Z,6.73
2017-03-25T01:22:56.033Z,6.68
2017-03-25T01:24:04.601Z,6.68
2017-03-25T01:25:13.167Z,6.82
2017-03-25T01:26:22.364Z,6.65
2017-03-25T01:27:31.248Z,6.72
2017-03-25T01:28:40.133Z,6.64
2017-03-25T01:29:49.334Z,6.61
2017-03-25T01:30:58.226Z,6.62
2017-03-25T01:32:06.798Z,6.62
2017-03-25T01:33:15.689Z,6.64
2017-03-25T01:34:24.570Z,6.57
2017-03-25T01:35:33.137Z,6.61
2017-03-25T01:36:41.703Z,6.55
2017-03-25T01:37:50.585Z,6.57
2017-03-25T01:38:59.468Z,6.58
2017-03-25T01:40:08.667Z,6.61
2017-03-25T01:41:17.548Z,6.51
2017-03-25T01:42:27.066Z,6.51
2017-03-25T01:43:35.629Z,6.55
2017-03-25T01:44:44.510Z,6.51
2017-03-25T01:45:53.712Z,6.58
2017-03-25T01:47:02.590Z,6.51
2017-03-25T01:48:11.154Z,6.4
2017-03-25T01:49:19.760Z,6.43
2017-03-25T01:50:28.640Z,6.4
2017-03-25T01:51:37.207Z,6.4
2017-03-25T01:52:45.779Z,6.4
2017-03-25T01:53:54.666Z,6.4
2017-03-25T01:55:03.233Z,6.39
2017-03-25T01:56:11.799Z,6.34
2017-03-25T01:57:20.997Z,6.34
2017-03-25T01:58:29.564Z,6.26
2017-03-25T01:59:38.446Z,6.39
2017-03-25T02:00:47.011Z,6.37
2017-03-25T02:01:55.908Z,6.26
2017-03-25T02:03:04.796Z,6.24
2017-03-25T02:04:13.675Z,6.31
2017-03-25T02:05:22.557Z,6.24
2017-03-25T02:06:31.752Z,6.26
2017-03-25T02:07:40.945Z,6.25
2017-03-25T02:08:49.827Z,6.24
2017-03-25T02:09:58.710Z,6.25
2017-03-25T02:11:08.225Z,6.15
2017-03-25T02:12:16.789Z,6.24
2017-03-25T02:13:25.354Z,6.24
2017-03-25T02:14:34.548Z,6.25
2017-03-25T02:15:43.116Z,6.21
2017-03-25T02:16:52.042Z,6.1
2017-03-25T02:18:01.238Z,6.1
2017-03-25T02:19:09.807Z,6.14
2017-03-25T02:20:18.686Z,6.14
2017-03-25T02:21:27.888Z,6.13
2017-03-25T02:22:36.769Z,6.2
2017-03-25T02:23:45.334Z,5.96
2017-03-25T02:24:54.214Z,6.05
2017-03-25T02:26:03.095Z,5.98
2017-03-25T02:27:11.667Z,6.02
2017-03-25T02:28:20.243Z,6.02
2017-03-25T02:29:29.129Z,6.02
2017-03-25T02:30:38.013Z,6.02
2017-03-25T02:31:46.893Z,6.14
2017-03-25T02:32:56.098Z,6.03
2017-03-25T02:34:04.664Z,5.95
2017-03-25T02:35:13.545Z,5.95
2017-03-25T02:36:22.746Z,5.88
2017-03-25T02:37:31.625Z,5.91
2017-03-25T02:38:40.189Z,5.92
2017-03-25T02:39:49.072Z,5.91
2017-03-25T02:40:58.273Z,5.95
2017-03-25T02:42:06.843Z,5.92
2017-03-25T02:43:15.722Z,5.92
2017-03-25T02:44:24.919Z,5.96
2017-03-25T02:45:34.438Z,5.98
2017-03-25T02:46:42.997Z,5.96
2017-03-25T02:47:51.567Z,5.98
2017-03-25T02:49:00.763Z,5.87
2017-03-25T02:50:09.330Z,5.87
2017-03-25T02:51:18.216Z,5.85
2017-03-25T02:52:27.102Z,5.84
2017-03-25T02:53:35.678Z,5.82
2017-03-25T02:54:44.253Z,5.85
2017-03-25T02:55:53.145Z,5.75
2017-03-25T02:57:02.032Z,5.75
2017-03-25T02:58:11.232Z,5.7
2017-03-25T02:59:20.435Z,5.75
2017-03-25T03:00:29.325Z,5.75
2017-03-25T03:01:38.209Z,5.67
2017-03-25T03:02:47.412Z,5.69
2017-03-25T03:03:55.984Z,5.69
2017-03-25T03:05:05.186Z,5.72
2017-03-25T03:06:13.760Z,5.67
2017-03-25T03:07:22.644Z,5.77
2017-03-25T03:08:31.531Z,5.78
2017-03-25T03:09:40.102Z,5.8
2017-03-25T03:10:49.303Z,5.77
2017-03-25T03:11:58.507Z,5.77
2017-03-25T03:13:07.712Z,5.7
2017-03-25T03:14:16.914Z,5.8
2017-03-25T03:15:25.805Z,5.78
2017-03-25T03:16:35.317Z,5.72
2017-03-25T03:17:44.203Z,5.82
2017-03-25T03:18:53.098Z,5.84
2017-03-25T03:20:02.557Z,5.85
2017-03-25T03:21:11.757Z,5.78
2017-03-25T03:22:20.323Z,5.78
2017-03-25T03:23:29.850Z,5.8
2017-03-25T03:24:39.052Z,5.77
2017-03-25T03:25:47.637Z,5.77
2017-03-25T03:26:56.526Z,5.73
2017-03-25T03:28:05.906Z,5.75
2017-03-25T03:29:15.472Z,5.75
2017-03-25T03:30:25.162Z,5.72
2017-03-25T03:31:34.191Z,5.67
2017-03-25T03:32:43.578Z,5.67
2017-03-25T03:33:52.160Z,5.67
2017-03-25T03:35:01.059Z,5.66
2017-03-25T03:36:10.574Z,5.59
2017-03-25T03:37:19.185Z,5.63
2017-03-25T03:38:27.753Z,5.62
2017-03-25T03:39:36.327Z,5.59
2017-03-25T03:40:44.895Z,5.55
2017-03-25T03:41:53.782Z,5.62
2017-03-25T03:43:02.986Z,5.49
2017-03-25T03:44:11.568Z,5.49
2017-03-25T03:45:20.452Z,5.54
2017-03-25T03:46:29.971Z,5.59
2017-03-25T03:47:38.862Z,5.55
2017-03-25T03:48:47.433Z,5.48
2017-03-25T03:49:56.323Z,5.51
2017-03-25T03:51:05.523Z,5.41
2017-03-25T03:52:15.291Z,5.44
2017-03-25T03:53:23.863Z,5.36
2017-03-25T03:54:32.441Z,5.42
2017-03-25T03:55:41.640Z,5.41
2017-03-25T03:56:50.525Z,5.28
2017-03-25T03:57:59.413Z,5.3
2017-03-25T03:59:08.297Z,5.21
2017-03-25T04:00:16.864Z,5.26
2017-03-25T04:01:26.065Z,5.23
2017-03-25T04:02:34.636Z,5.23
2017-03-25T04:03:43.231Z,5.21
2017-03-25T04:04:52.120Z,5.18
2017-03-25T04:06:00.697Z,5.18
2017-03-25T04:07:09.268Z,5.16
2017-03-25T04:08:18.469Z,5.1
2017-03-25T04:09:27.358Z,5.18
2017-03-25T04:10:35.923Z,5.13
2017-03-25T04:11:44.812Z,5.13
2017-03-25T04:12:53.703Z,5.2
2017-03-25T04:14:02.589Z,5.1
2017-03-25T04:15:11.157Z,5.13
2017-03-25T04:16:20.040Z,5.18
2017-03-25T04:17:28.607Z,5.18
2017-03-25T04:18:37.495Z,5.18
2017-03-25T04:19:47.010Z,5.2
2017-03-25T04:20:55.897Z,5.2
2017-03-25T04:22:04.463Z,5.15
2017-03-25T04:23:13.033Z,5.18
2017-03-25T04:24:21.916Z,5.18
2017-03-25T04:25:30.483Z,5.27
2017-03-25T04:26:39.053Z,5.23
2017-03-25T04:27:47.943Z,5.24
2017-03-25T04:28:57.043Z,5.23
2017-03-25T04:30:05.925Z,5.26
2017-03-25T04:31:15.124Z,5.2
2017-03-25T04:32:24.015Z,5.23
2017-03-25T04:33:32.946Z,5.28
2017-03-25T04:34:41.513Z,5.23
2017-03-25T04:35:50.397Z,5.18
2017-03-25T04:36:58.961Z,5.23
2017-03-25T04:38:07.568Z,5.27
2017-03-25T04:39:17.096Z,5.2
2017-03-25T04:40:26.302Z,5.24
2017-03-25T04:41:35.825Z,5.21
2017-03-25T04:42:44.394Z,5.23
2017-03-25T04:43:53.292Z,5.18
2017-03-25T04:45:02.851Z,5.2
2017-03-25T04:46:11.732Z,5.21
2017-03-25T04:47:20.336Z,5.15
2017-03-25T04:48:28.911Z,5.2
2017-03-25T04:49:37.799Z,5.18
2017-03-25T04:50:47.321Z,5.21
2017-03-25T04:51:55.910Z,5.13
2017-03-25T04:53:05.120Z,5.15
2017-03-25T04:54:14.002Z,5.13
2017-03-25T04:55:22.578Z,5.1
2017-03-25T04:56:31.533Z,5.13
2017-03-25T04:57:40.172Z,5.08
2017-03-25T04:58:49.175Z,5.1
2017-03-25T04:59:57.780Z,5.16
2017-03-25T05:01:07.028Z,5.16
2017-03-25T05:02:15.604Z,5.13
2017-03-25T05:03:24.515Z,5.1
2017-03-25T05:04:33.445Z,5.2
2017-03-25T05:05:42.687Z,5.1
2017-03-25T05:06:51.566Z,5.1
2017-03-25T05:08:00.448Z,5.2
2017-03-25T05:09:09.330Z,5.2
2017-03-25T05:10:18.211Z,5.15
2017-03-25T05:11:26.789Z,5.08
2017-03-25T05:12:35.668Z,5.18
2017-03-25T05:13:44.558Z,5.15
2017-03-25T05:14:53.133Z,5.23
2017-03-25T05:16:02.022Z,5.08
2017-03-25T05:17:11.538Z,5.12
2017-03-25T05:18:20.426Z,5.12
2017-03-25T05:19:29.309Z,5.13
2017-03-25T05:20:38.189Z,5.16
2017-03-25T05:21:47.073Z,5.16
2017-03-25T05:22:56.283Z,5.12
2017-03-25T05:24:04.858Z,5.16
2017-03-25T05:25:14.377Z,5.13
2017-03-25T05:26:23.264Z,5.1
2017-03-25T05:27:32.145Z,5.06
2017-03-25T05:28:41.032Z,5.02
2017-03-25T05:29:49.916Z,5.03
2017-03-25T05:30:58.542Z,5.03
2017-03-25T05:32:07.112Z,5.02
2017-03-25T05:33:15.992Z,5.08
2017-03-25T05:34:24.879Z,5.09
2017-03-25T05:35:33.765Z,5.13
2017-03-25T05:36:42.655Z,5.18
2017-03-25T05:37:51.858Z,5
2017-03-25T05:39:01.377Z,5.15
2017-03-25T05:40:09.948Z,5.18
2017-03-25T05:41:18.842Z,5.09
2017-03-25T05:42:27.729Z,5.13
2017-03-25T05:43:36.301Z,5.1
2017-03-25T05:44:44.869Z,5.1
2017-03-25T05:45:54.067Z,5.13
2017-03-25T05:47:03.275Z,5.12
2017-03-25T05:48:11.849Z,5.23
2017-03-25T05:49:20.733Z,5.13
2017-03-25T05:50:29.934Z,5.2
2017-03-25T05:51:39.133Z,5.26
2017-03-25T05:52:48.018Z,5.26
2017-03-25T05:53:56.588Z,5.21
2017-03-25T05:55:05.164Z,5.24
2017-03-25T05:56:14.049Z,5.24
2017-03-25T05:57:22.933Z,5.33
2017-03-25T05:58:31.817Z,5.34
2017-03-25T05:59:40.704Z,5.39
2017-03-25T06:00:49.589Z,5.33
2017-03-25T06:01:58.160Z,5.33
2017-03-25T06:03:06.735Z,5.24
2017-03-25T06:04:15.952Z,5.37
2017-03-25T06:05:24.850Z,5.37
2017-03-25T06:06:33.424Z,5.34
2017-03-25T06:07:42.940Z,5.41
2017-03-25T06:08:51.832Z,5.49
2017-03-25T06:10:01.389Z,5.44
2017-03-25T06:11:10.278Z,5.42
2017-03-25T06:12:19.811Z,5.48
2017-03-25T06:13:28.389Z,5.49
2017-03-25T06:14:37.932Z,5.48
2017-03-25T06:15:46.862Z,5.48
2017-03-25T06:16:56.100Z,5.51
2017-03-25T06:18:05.014Z,5.55
2017-03-25T06:19:13.959Z,5.64
2017-03-25T06:20:23.252Z,5.66
2017-03-25T06:21:32.361Z,5.69
2017-03-25T06:22:41.614Z,5.66
2017-03-25T06:23:50.611Z,5.67
2017-03-25T06:24:59.842Z,5.63
2017-03-25T06:26:08.813Z,5.73
2017-03-25T06:27:18.059Z,5.7
2017-03-25T06:28:26.977Z,5.77
2017-03-25T06:29:35.551Z,5.78
2017-03-25T06:30:44.143Z,5.84
2017-03-25T06:31:53.341Z,5.87
2017-03-25T06:33:02.226Z,5.84
2017-03-25T06:34:10.793Z,5.92
2017-03-25T06:35:19.687Z,5.88
2017-03-25T06:36:28.571Z,5.88
2017-03-25T06:37:37.454Z,5.96
2017-03-25T06:38:46.717Z,5.98
2017-03-25T06:39:55.611Z,6.14
2017-03-25T06:41:04.497Z,6.05
2017-03-25T06:42:13.412Z,6.06
2017-03-25T06:43:22.611Z,6.1
2017-03-25T06:44:31.554Z,6.15
2017-03-25T06:45:40.128Z,6.14
2017-03-25T06:46:48.701Z,6.14
2017-03-25T06:47:57.896Z,6.13
2017-03-25T06:49:06.474Z,6.14
2017-03-25T06:50:15.360Z,6.21
2017-03-25T06:51:24.270Z,6.28
2017-03-25T06:52:32.847Z,6.28
2017-03-25T06:53:42.057Z,6.37
2017-03-25T06:54:50.629Z,6.42
2017-03-25T06:56:00.153Z,6.37
2017-03-25T06:57:08.739Z,6.51
2017-03-25T06:58:17.311Z,6.52
2017-03-25T06:59:25.886Z,6.54
2017-03-25T07:00:35.089Z,6.6
2017-03-25T07:01:44.292Z,6.57
2017-03-25T07:02:53.487Z,6.6
2017-03-25T07:04:02.379Z,6.67
2017-03-25T07:05:11.584Z,6.68
2017-03-25T07:06:20.785Z,6.72
2017-03-25T07:07:29.673Z,6.7
2017-03-25T07:08:38.241Z,6.82
2017-03-25T07:09:47.447Z,6.82
2017-03-25T07:10:56.335Z,6.78
2017-03-25T07:12:05.541Z,6.93
2017-03-25T07:13:14.116Z,6.91
2017-03-25T07:14:23.320Z,6.86
2017-03-25T07:15:31.892Z,6.97
2017-03-25T07:16:41.093Z,7.03
2017-03-25T07:17:50.296Z,7.15
2017-03-25T07:18:58.862Z,7.05
2017-03-25T07:20:09.350Z,7.12
2017-03-25T07:21:17.924Z,7.13
2017-03-25T07:22:27.122Z,7.21
2017-03-25T07:23:36.013Z,7.23
2017-03-25T07:24:44.585Z,7.19
2017-03-25T07:25:53.477Z,7.26
2017-03-25T07:27:02.359Z,7.3
2017-03-25T07:28:11.875Z,7.21
2017-03-25T07:29:20.448Z,7.26
2017-03-25T07:30:29.668Z,7.34
2017-03-25T07:31:38.553Z,7.33
2017-03-25T07:32:47.755Z,7.36
2017-03-25T07:33:56.963Z,7.41
2017-03-25T07:35:05.857Z,7.44
2017-03-25T07:36:14.747Z,7.39
2017-03-25T07:37:23.954Z,7.41
2017-03-25T07:38:32.847Z,7.41
2017-03-25T07:39:42.371Z,7.47
2017-03-25T07:40:51.928Z,7.52
2017-03-25T07:42:01.130Z,7.52
2017-03-25T07:43:10.023Z,7.49
2017-03-25T07:44:18.599Z,7.51
2017-03-25T07:45:27.495Z,7.52
2017-03-25T07:46:36.383Z,7.51
2017-03-25T07:47:44.953Z,7.67
2017-03-25T07:48:54.168Z,7.67
2017-03-25T07:50:03.064Z,7.59
2017-03-25T07:51:11.957Z,7.75
2017-03-25T07:52:21.157Z,7.67
2017-03-25T07:53:29.729Z,7.78
2017-03-25T07:54:38.303Z,7.77
2017-03-25T07:55:47.187Z,7.83
2017-03-25T07:56:55.755Z,7.86
2017-03-25T07:58:04.335Z,7.82
2017-03-25T07:59:13.276Z,7.86
2017-03-25T08:00:21.851Z,7.93
2017-03-25T08:01:31.375Z,7.96
2017-03-25T08:02:41.214Z,8.04
2017-03-25T08:03:50.105Z,7.99
2017-03-25T08:04:58.677Z,7.99
2017-03-25T08:06:07.564Z,8.04
2017-03-25T08:07:16.132Z,8.06
2017-03-25T08:08:25.019Z,8.22
2017-03-25T08:09:34.569Z,8.14
2017-03-25T08:10:43.768Z,8.17
2017-03-25T08:11:52.975Z,8.19
2017-03-25T08:13:01.865Z,8.28
2017-03-25T08:14:10.752Z,8.25
2017-03-25T08:15:19.964Z,8.31
2017-03-25T08:16:28.536Z,8.36
2017-03-25T08:17:37.508Z,8.36
2017-03-25T08:18:46.297Z,8.39
2017-03-25T08:19:55.261Z,8.35
2017-03-25T08:21:04.869Z,8.43
2017-03-25T08:22:13.872Z,8.53
2017-03-25T08:23:23.410Z,8.52
2017-03-25T08:24:33.327Z,8.57
2017-03-25T08:25:42.530Z,8.64
2017-03-25T08:26:51.418Z,8.69
2017-03-25T08:27:59.996Z,8.79
2017-03-25T08:29:08.944Z,8.79
2017-03-25T08:30:18.168Z,8.82
2017-03-25T08:31:27.055Z,8.89
2017-03-25T08:32:36.260Z,8.95
2017-03-25T08:33:44.829Z,8.98
2017-03-25T08:34:54.076Z,9.04
2017-03-25T08:36:03.282Z,9.09
2017-03-25T08:37:12.479Z,9.21
2017-03-25T08:38:21.405Z,9.09
2017-03-25T08:39:30.292Z,9.2
2017-03-25T08:40:39.493Z,9.24
2017-03-25T08:41:48.376Z,9.34
2017-03-25T08:42:56.961Z,9.23
2017-03-25T08:44:05.852Z,9.34
2017-03-25T08:45:14.433Z,9.35
2017-03-25T08:46:23.635Z,9.41
2017-03-25T08:47:32.524Z,9.37
2017-03-25T08:48:41.104Z,9.39
2017-03-25T08:49:49.681Z,9.48
2017-03-25T08:50:58.272Z,9.56
2017-03-25T08:52:07.156Z,9.53
2017-03-25T08:53:16.363Z,9.57
2017-03-25T08:54:25.572Z,9.57
2017-03-25T08:55:34.781Z,9.63
2017-03-25T08:56:43.671Z,9.67
2017-03-25T08:57:52.558Z,9.7
2017-03-25T08:59:01.450Z,9.71
2017-03-25T09:00:10.026Z,9.78
2017-03-25T09:01:19.548Z,9.82
2017-03-25T09:02:28.470Z,9.9
2017-03-25T09:03:37.359Z,9.88
2017-03-25T09:04:45.939Z,9.96
2017-03-25T09:05:54.825Z,9.98
2017-03-25T09:07:03.719Z,9.9
2017-03-25T09:08:12.614Z,10.03
2017-03-25T09:09:21.501Z,10.14
2017-03-25T09:10:30.076Z,10.17
2017-03-25T09:11:39.276Z,10.33
2017-03-25T09:12:47.846Z,10.33
2017-03-25T09:13:56.427Z,10.42
2017-03-25T09:15:05.002Z,10.49
2017-03-25T09:16:13.889Z,10.61
2017-03-25T09:17:23.098Z,10.61
2017-03-25T09:18:31.986Z,10.7
2017-03-25T09:19:41.196Z,10.72
2017-03-25T09:20:50.081Z,10.85
2017-03-25T09:21:58.656Z,10.83
2017-03-25T09:23:07.856Z,11
2017-03-25T09:24:16.756Z,11.03
2017-03-25T09:25:25.649Z,11.08
2017-03-25T09:26:34.851Z,11.13
2017-03-25T09:27:43.744Z,11.16
2017-03-25T09:28:52.712Z,11.24
2017-03-25T09:30:01.926Z,11.24
2017-03-25T09:31:10.513Z,11.33
2017-03-25T09:32:19.510Z,11.3
2017-03-25T09:33:28.401Z,11.41
2017-03-25T09:34:36.977Z,11.38
2017-03-25T09:35:45.552Z,11.45
2017-03-25T09:36:54.128Z,11.52
2017-03-25T09:38:03.020Z,11.49
2017-03-25T09:39:11.612Z,11.63
2017-03-25T09:40:20.194Z,11.56
2017-03-25T09:41:29.083Z,11.51
2017-03-25T09:42:37.973Z,11.46
2017-03-25T09:43:46.871Z,11.53
2017-03-25T09:44:55.446Z,11.51
2017-03-25T09:46:04.335Z,11.52
2017-03-25T09:47:12.917Z,11.6
2017-03-25T09:48:22.123Z,11.67
2017-03-25T09:49:31.021Z,11.64
2017-03-25T09:50:39.918Z,11.76
2017-03-25T09:51:49.118Z,11.84
2017-03-25T09:52:57.699Z,11.82
2017-03-25T09:54:06.273Z,11.85
2017-03-25T09:55:14.853Z,11.88
2017-03-25T09:56:23.427Z,11.84
2017-03-25T09:57:32.003Z,12.01
2017-03-25T09:58:40.584Z,12.08
2017-03-25T09:59:49.797Z,12.08
2017-03-25T10:00:58.684Z,12.04
2017-03-25T10:02:07.886Z,12.1
2017-03-25T10:03:16.775Z,12.19
2017-03-25T10:04:25.991Z,12.16
2017-03-25T10:05:34.878Z,12.18
2017-03-25T10:06:43.762Z,12.33
2017-03-25T10:07:52.651Z,12.28
2017-03-25T10:09:01.551Z,12.36
2017-03-25T10:10:10.122Z,12.41
2017-03-25T10:11:19.328Z,12.4
2017-03-25T10:12:28.217Z,12.44
2017-03-25T10:13:37.111Z,12.53
2017-03-25T10:14:46.322Z,12.47
2017-03-25T10:15:55.224Z,12.59
2017-03-25T10:17:04.430Z,12.51
2017-03-25T10:18:13.001Z,12.65
2017-03-25T10:19:21.896Z,12.71
2017-03-25T10:20:30.790Z,12.65
2017-03-25T10:21:40.324Z,12.69
2017-03-25T10:22:48.899Z,12.73
2017-03-25T10:23:58.114Z,12.63
2017-03-25T10:25:06.725Z,12.78
2017-03-25T10:26:15.309Z,12.76
2017-03-25T10:27:24.519Z,12.8
2017-03-25T10:28:33.408Z,12.88
2017-03-25T10:29:42.555Z,12.96
2017-03-25T10:30:51.451Z,12.98
2017-03-25T10:32:00.337Z,12.86
2017-03-25T10:33:08.911Z,12.88
2017-03-25T10:34:18.122Z,12.86
2017-03-25T10:35:27.009Z,12.86
2017-03-25T10:36:35.895Z,12.92
2017-03-25T10:37:44.468Z,12.95
2017-03-25T10:38:53.045Z,13.01
2017-03-25T10:40:01.937Z,13.09
2017-03-25T10:41:10.828Z,13.07
2017-03-25T10:42:19.590Z,13.19
2017-03-25T10:43:30.649Z,13.25
2017-03-25T10:44:40.086Z,13.21
2017-03-25T10:45:49.391Z,13.32
2017-03-25T10:46:58.304Z,13.24
2017-03-25T10:48:07.241Z,13.37
2017-03-25T10:49:15.822Z,13.5
2017-03-25T10:50:24.722Z,13.47
2017-03-25T10:51:34.307Z,13.57
2017-03-25T10:52:43.254Z,13.72
2017-03-25T10:53:51.840Z,13.68
2017-03-25T10:55:00.501Z,13.72
2017-03-25T10:56:09.204Z,13.7
2017-03-25T10:57:18.722Z,13.73
2017-03-25T10:58:28.250Z,13.78
2017-03-25T10:59:37.149Z,13.81
2017-03-25T11:00:46.364Z,13.78
2017-03-25T11:01:54.936Z,13.81
2017-03-25T11:03:04.170Z,13.87
2017-03-25T11:04:13.373Z,13.88
2017-03-25T11:05:22.266Z,13.88
2017-03-25T11:06:31.163Z,13.91
2017-03-25T11:07:39.740Z,13.88
2017-03-25T11:08:48.638Z,14.05
2017-03-25T11:09:57.531Z,13.95
2017-03-25T11:11:06.419Z,14.05
2017-03-25T11:12:15.623Z,14.03
2017-03-25T11:13:24.521Z,14.02
2017-03-25T11:14:33.733Z,13.91
2017-03-25T11:15:42.618Z,13.86
2017-03-25T11:16:51.226Z,13.73
2017-03-25T11:18:00.899Z,13.68
2017-03-25T11:19:10.111Z,13.63
2017-03-25T11:20:18.689Z,13.6
2017-03-25T11:21:27.267Z,13.63
2017-03-25T11:22:36.158Z,13.63
2017-03-25T11:23:45.057Z,13.53
2017-03-25T11:24:54.335Z,13.62
2017-03-25T11:26:03.019Z,13.58
2017-03-25T11:27:11.609Z,13.65
2017-03-25T11:28:20.197Z,13.75
2017-03-25T11:29:29.094Z,13.75
2017-03-25T11:30:37.989Z,13.76
2017-03-25T11:31:46.883Z,13.78
2017-03-25T11:32:55.461Z,13.72
2017-03-25T11:34:04.371Z,13.73
2017-03-25T11:35:13.610Z,13.9
2017-03-25T11:36:22.189Z,13.84
2017-03-25T11:37:31.089Z,13.97
2017-03-25T11:38:40.618Z,13.97
2017-03-25T11:39:49.506Z,14.02
2017-03-25T11:40:58.085Z,14.05
2017-03-25T11:42:07.293Z,14.02
2017-03-25T11:43:16.192Z,14.05
2017-03-25T11:44:25.413Z,14.02
2017-03-25T11:45:34.341Z,14.11
2017-03-25T11:46:43.234Z,14.03
2017-03-25T11:47:52.144Z,14.05
2017-03-25T11:49:00.730Z,14.19
2017-03-25T11:50:09.309Z,14.13
2017-03-25T11:51:18.198Z,14.16
2017-03-25T11:52:27.403Z,14.15
2017-03-25T11:53:36.607Z,14.13
2017-03-25T11:54:45.820Z,14.05
2017-03-25T11:55:54.709Z,14.09
2017-03-25T11:57:03.296Z,14.16
2017-03-25T11:58:12.241Z,14.16
2017-03-25T11:59:20.830Z,14.33
2017-03-25T12:00:29.727Z,14.28
2017-03-25T12:01:38.550Z,14.3
2017-03-25T12:02:47.756Z,14.21
2017-03-25T12:03:57.079Z,14.27
2017-03-25T12:05:06.609Z,14.24
2017-03-25T12:06:15.818Z,14.23
2017-03-25T12:07:25.046Z,14.2
2017-03-25T12:08:33.821Z,14.16
2017-03-25T12:09:42.426Z,14.21
2017-03-25T12:10:51.001Z,14.21
2017-03-25T12:11:59.891Z,14.16
2017-03-25T12:13:08.469Z,14.24
2017-03-25T12:14:17.050Z,14.26
2017-03-25T12:15:26.269Z,14.33
2017-03-25T12:16:35.483Z,14.28
2017-03-25T12:17:44.432Z,14.24
2017-03-25T12:18:53.304Z,14.26
2017-03-25T12:20:02.520Z,14.23
2017-03-25T12:21:11.418Z,14.09
2017-03-25T12:22:20.719Z,14.01
2017-03-25T12:23:29.655Z,14.13
2017-03-25T12:24:38.878Z,14.06
2017-03-25T12:25:48.122Z,14.16
2017-03-25T12:26:57.349Z,14.24
2017-03-25T12:28:06.017Z,14.23
2017-03-25T12:29:15.074Z,14.28
2017-03-25T12:30:23.984Z,14.28
2017-03-25T12:31:32.631Z,14.28
2017-03-25T12:32:41.531Z,14.42
2017-03-25T12:33:54.912Z,14.41
2017-03-25T12:35:03.845Z,14.34
2017-03-25T12:36:12.766Z,14.46
2017-03-25T12:37:21.709Z,14.44
2017-03-25T12:38:30.373Z,14.36
2017-03-25T12:39:39.457Z,14.39
2017-03-25T12:40:48.058Z,14.39
2017-03-25T12:41:57.374Z,14.44
2017-03-25T12:43:06.176Z,14.36
2017-03-25T12:44:15.642Z,14.57
2017-03-25T12:45:24.236Z,14.52
2017-03-25T12:46:33.043Z,14.46
2017-03-25T12:47:42.457Z,14.56
2017-03-25T12:48:51.426Z,14.52
2017-03-25T12:50:00.325Z,14.57
2017-03-25T12:51:08.901Z,14.6
2017-03-25T12:52:17.921Z,14.74
2017-03-25T12:53:27.781Z,14.66
2017-03-25T12:54:36.711Z,14.71
2017-03-25T12:55:45.546Z,14.66
2017-03-25T12:56:54.446Z,14.71
2017-03-25T12:58:03.335Z,14.64
2017-03-25T12:59:12.222Z,14.64
2017-03-25T13:00:21.132Z,14.69
2017-03-25T13:01:30.341Z,14.64
2017-03-25T13:02:38.918Z,14.69
2017-03-25T13:03:47.811Z,14.6
2017-03-25T13:04:56.434Z,14.64
2017-03-25T13:06:05.332Z,14.67
2017-03-25T13:07:13.906Z,14.69
2017-03-25T13:08:22.809Z,14.79
2017-03-25T13:09:31.722Z,14.66
2017-03-25T13:10:40.614Z,14.67
2017-03-25T13:11:49.509Z,14.77
2017-03-25T13:12:58.109Z,14.74
2017-03-25T13:14:06.685Z,14.7
2017-03-25T13:15:15.263Z,14.7
2017-03-25T13:16:24.472Z,14.67
2017-03-25T13:17:33.365Z,14.8
2017-03-25T13:18:41.955Z,14.69
2017-03-25T13:19:50.909Z,14.85
2017-03-25T13:20:59.650Z,14.9
2017-03-25T13:22:08.869Z,14.83
2017-03-25T13:23:17.679Z,14.8
2017-03-25T13:24:26.586Z,14.86
2017-03-25T13:25:35.512Z,14.79
2017-03-25T13:26:44.722Z,14.86
2017-03-25T13:27:53.928Z,14.86
2017-03-25T13:29:02.512Z,14.97
2017-03-25T13:30:11.088Z,14.86
2017-03-25T13:31:19.679Z,14.9
2017-03-25T13:32:28.570Z,14.97
2017-03-25T13:33:37.145Z,14.97
2017-03-25T13:34:45.723Z,15
2017-03-25T13:35:54.297Z,14.98
2017-03-25T13:37:03.609Z,15.02
2017-03-25T13:38:12.187Z,15.08
2017-03-25T13:39:21.399Z,15.07
2017-03-25T13:40:29.980Z,15.18
2017-03-25T13:41:38.554Z,15.15
2017-03-25T13:42:47.386Z,15.2
2017-03-25T13:43:55.976Z,15.18
2017-03-25T13:45:04.870Z,15.16
2017-03-25T13:46:13.770Z,15.07
2017-03-25T13:47:22.353Z,15.07
2017-03-25T13:48:31.248Z,15.13
2017-03-25T13:49:40.152Z,15.08
2017-03-25T13:50:49.049Z,15.12
2017-03-25T13:51:57.630Z,15.12
2017-03-25T13:53:06.525Z,15.18
2017-03-25T13:54:15.103Z,15.12
2017-03-25T13:55:23.999Z,15.1
2017-03-25T13:56:32.576Z,15.12
2017-03-25T13:57:41.468Z,15.05
2017-03-25T13:58:50.099Z,15.08
2017-03-25T13:59:58.996Z,15.12
2017-03-25T14:01:07.899Z,15.16
2017-03-25T14:02:16.790Z,15.1
2017-03-25T14:03:25.366Z,15.1
2017-03-25T14:04:34.260Z,15.02
2017-03-25T14:05:42.837Z,15.02
2017-03-25T14:06:51.726Z,15.04
2017-03-25T14:08:00.617Z,15.04
2017-03-25T14:09:10.156Z,15.08
2017-03-25T14:10:18.748Z,15.04
2017-03-25T14:11:27.991Z,15.05
2017-03-25T14:12:37.325Z,15.13
2017-03-25T14:13:46.622Z,15.05
2017-03-25T14:14:55.521Z,15.08
2017-03-25T14:16:04.476Z,15.04
2017-03-25T14:17:13.054Z,15.02
2017-03-25T14:18:21.943Z,15
2017-03-25T14:19:30.848Z,15.01
2017-03-25T14:20:39.428Z,15.04
2017-03-25T14:21:48.635Z,15
2017-03-25T14:22:57.544Z,15.04
2017-03-25T14:24:06.381Z,15.04
2017-03-25T14:25:15.285Z,15.07
2017-03-25T14:26:24.491Z,15.07
2017-03-25T14:27:33.707Z,15.12
2017-03-25T14:28:42.302Z,15.15
2017-03-25T14:29:51.199Z,15.07
2017-03-25T14:31:00.098Z,15.1
2017-03-25T14:32:08.678Z,15.04
2017-03-25T14:33:17.264Z,15.04
2017-03-25T14:34:25.846Z,14.98
2017-03-25T14:35:34.744Z,15.05
2017-03-25T14:36:46.538Z,15
2017-03-25T14:37:55.109Z,14.98
2017-03-25T14:39:04.324Z,15.05
2017-03-25T14:40:13.222Z,15
2017-03-25T14:41:22.432Z,15.01
2017-03-25T14:42:31.641Z,14.98
2017-03-25T14:43:40.908Z,15
2017-03-25T14:44:50.644Z,15.01
2017-03-25T14:45:59.221Z,14.97
2017-03-25T14:47:07.796Z,14.98
2017-03-25T14:48:16.693Z,14.98
2017-03-25T14:49:25.278Z,14.93
2017-03-25T14:50:33.905Z,14.94
2017-03-25T14:51:42.485Z,14.86
2017-03-25T14:52:51.065Z,15
2017-03-25T14:54:00.263Z,15
2017-03-25T14:55:09.317Z,15
2017-03-25T14:56:17.897Z,14.98
2017-03-25T14:57:26.477Z,15
2017-03-25T14:58:35.374Z,14.9
2017-03-25T14:59:44.592Z,14.94
2017-03-25T15:00:53.800Z,15.05
2017-03-25T15:02:02.378Z,15.05
2017-03-25T15:03:10.958Z,14.95
2017-03-25T15:04:19.589Z,15.04
2017-03-25T15:05:28.493Z,14.95
2017-03-25T15:06:37.385Z,14.93
2017-03-25T15:07:46.284Z,14.93
2017-03-25T15:08:55.495Z,14.93